Appleton, New York
Current Conditions -  °F | °C
As of 10:53 PM on Monday 22 Dec 2014 (Local Time) from KIAG Reporting Station
Broken Clouds Broken Clouds  
Wind Chill: 29°   Ceiling: 20000
Heat Index: 33°   Visibility: 10mi
Dew Point: 26°   Wind: 5mph
Humidity: 75%   Direction: 140°SE
Pressure: 30.03"   Gusts: NA
Location:  43.33°N, 78.65°W
Report Text: KIAG 230353Z 14004KT 10SM FEW045 BKN200 01/M03 A3003 RMK AO2 SLP182 LAST T00061033
Loading
Personal Weather Stations






























Interactive Weather Map New forecast layout! Learn more

10-Day Weather Forecast

Advertisements
Track Severe Weather on mobile